createdAt,value
2022-08-02T00:02:15.316Z,100262.04
2022-08-02T00:04:44.100Z,100263.35
2022-08-02T00:07:13.030Z,100263.24
2022-08-02T00:09:41.806Z,100271.86
2022-08-02T00:12:10.980Z,100269.33
2022-08-02T00:14:39.894Z,100268.88
2022-08-02T00:17:08.717Z,100264.37
2022-08-02T00:19:38.566Z,100270.02
2022-08-02T00:22:07.509Z,100262.98
2022-08-02T00:24:37.346Z,100271.98
2022-08-02T00:27:09.373Z,100269.84
2022-08-02T00:29:44.452Z,100269.52
2022-08-02T00:32:10.665Z,100272.89
2022-08-02T00:34:39.748Z,100270.90
2022-08-02T00:37:09.524Z,100268.42
2022-08-02T00:39:38.314Z,100268.73
2022-08-02T00:42:07.185Z,100270.77
2022-08-02T00:44:36.130Z,100268.26
2022-08-02T00:47:05.838Z,100269.06
2022-08-02T00:49:34.848Z,100260.52
2022-08-02T00:52:04.466Z,100267.53
2022-08-02T00:54:33.297Z,100269.73
2022-08-02T00:57:02.121Z,100272.39
2022-08-02T00:59:31.017Z,100270.06
2022-08-02T01:01:59.794Z,100280.58
2022-08-02T01:04:31.052Z,100272.38
2022-08-02T01:07:00.049Z,100268.70
2022-08-02T01:09:29.137Z,100271.86
2022-08-02T01:12:02.614Z,100269.98
2022-08-02T01:14:29.571Z,100266.02
2022-08-02T01:17:03.081Z,100267.98
2022-08-02T01:19:41.281Z,100261.95
2022-08-02T01:22:59.326Z,100264.06
2022-08-02T01:25:00.540Z,100264.85
2022-08-02T01:27:36.904Z,100272.72
2022-08-02T01:30:07.244Z,100275.24
2022-08-02T01:32:38.929Z,100271.16
2022-08-02T01:35:12.220Z,100274.02
2022-08-02T01:37:42.479Z,100271.10
2022-08-02T01:40:15.777Z,100275.20
2022-08-02T01:42:46.063Z,100269.05
2022-08-02T01:45:16.150Z,100261.03
2022-08-02T01:47:46.096Z,100262.86
2022-08-02T01:50:16.625Z,100274.53
2022-08-02T01:52:53.654Z,100273.31
2022-08-02T01:55:19.354Z,100274.96
2022-08-02T01:57:50.937Z,100280.16
2022-08-02T02:00:21.279Z,100277.41
2022-08-02T02:02:52.584Z,100276.23
2022-08-02T02:05:23.807Z,100280.13
2022-08-02T02:07:54.069Z,100284.29
2022-08-02T02:10:24.327Z,100278.15
2022-08-02T02:12:54.880Z,100277.19
2022-08-02T02:15:25.143Z,100275.49
2022-08-02T02:18:11.443Z,100277.03
2022-08-02T02:20:26.377Z,100275.27
2022-08-02T02:22:56.281Z,100283.80
2022-08-02T02:25:35.495Z,100280.93
2022-08-02T02:27:59.039Z,100282.50
2022-08-02T02:30:29.606Z,100287.08
2022-08-02T02:32:59.626Z,100287.12
2022-08-02T02:35:32.844Z,100289.30
2022-08-02T02:38:03.631Z,100289.25
2022-08-02T02:40:34.221Z,100294.48
2022-08-02T02:43:04.605Z,100298.11
2022-08-02T02:45:34.331Z,100298.11
2022-08-02T02:48:03.826Z,100298.69
2022-08-02T02:50:34.179Z,100290.98
2022-08-02T02:53:03.318Z,100292.08
2022-08-02T02:55:32.508Z,100295.67
2022-08-02T02:58:01.518Z,100298.45
2022-08-02T03:00:49.117Z,100296.58
2022-08-02T03:03:19.619Z,100295.73
2022-08-02T03:05:48.896Z,100293.12
2022-08-02T03:08:17.960Z,100296.44
2022-08-02T03:10:48.118Z,100296.34
2022-08-02T03:13:18.051Z,100296.92
2022-08-02T03:15:48.049Z,100298.90
2022-08-02T03:18:36.867Z,100298.27
2022-08-02T03:21:06.926Z,100298.03
2022-08-02T03:23:36.056Z,100295.70
2022-08-02T03:26:05.483Z,100293.18
2022-08-02T03:28:34.522Z,100300.39
2022-08-02T03:31:03.723Z,100304.70
2022-08-02T03:33:32.715Z,100301.53
2022-08-02T03:36:03.028Z,100304.45
2022-08-02T03:38:33.330Z,100300.41
2022-08-02T03:41:03.793Z,100299.11
2022-08-02T03:43:34.525Z,100305.64
2022-08-02T03:46:05.627Z,100305.88
2022-08-02T03:48:35.343Z,100314.80
2022-08-02T03:51:06.134Z,100314.14
2022-08-02T03:53:35.014Z,100319.53
2022-08-02T03:56:04.946Z,100319.64
2022-08-02T03:58:34.661Z,100324.53
2022-08-02T04:01:03.776Z,100338.87
2022-08-02T04:03:33.263Z,100348.82
2022-08-02T04:06:04.276Z,100337.89
2022-08-02T04:08:37.608Z,100336.63
2022-08-02T04:11:22.360Z,100342.70
2022-08-02T04:13:51.316Z,100349.88
2022-08-02T04:16:21.951Z,100359.37
2022-08-02T04:18:52.196Z,100357.60
2022-08-02T04:21:22.160Z,100358.77
2022-08-02T04:23:51.898Z,100365.69
2022-08-02T04:26:28.133Z,100369.95
2022-08-02T04:28:52.592Z,100364.98
2022-08-02T04:31:22.374Z,100367.65
2022-08-02T04:33:51.716Z,100369.49
2022-08-02T04:36:31.059Z,100374.64
2022-08-02T04:38:51.196Z,100379.73
2022-08-02T04:41:20.057Z,100377.20
2022-08-02T04:43:48.811Z,100374.30
2022-08-02T04:46:17.574Z,100377.78
2022-08-02T04:48:46.566Z,100379.39
2022-08-02T04:51:16.437Z,100376.95
2022-08-02T04:53:45.199Z,100383.03
2022-08-02T04:56:14.117Z,100381.78
2022-08-02T04:58:42.950Z,100385.44
2022-08-02T05:01:13.121Z,100386.47
2022-08-02T05:03:41.974Z,100385.67
2022-08-02T05:06:19.276Z,100389.11
2022-08-02T05:08:41.291Z,100393.11
2022-08-02T05:11:10.124Z,100388.41
2022-08-02T05:13:58.083Z,100390.06
2022-08-02T05:16:09.633Z,100390.42
2022-08-02T05:18:38.435Z,100388.03
2022-08-02T05:21:07.268Z,100386.78
2022-08-02T05:23:36.255Z,100388.63
2022-08-02T05:26:05.250Z,100388.20
2022-08-02T05:28:34.214Z,100397.61
2022-08-02T05:31:04.673Z,100404.64
2022-08-02T05:33:35.166Z,100404.41
2022-08-02T05:36:04.060Z,100410.18
2022-08-02T05:38:36.991Z,100411.23
2022-08-02T05:41:03.959Z,100411.80
2022-08-02T05:43:33.102Z,100411.98
2022-08-02T05:46:01.940Z,100413.75
2022-08-02T05:48:32.199Z,100416.42
2022-08-02T05:51:02.650Z,100426.42
2022-08-02T05:53:47.677Z,100430.31
2022-08-02T05:56:27.034Z,100432.53
2022-08-02T05:59:03.085Z,100427.67
2022-08-02T06:01:40.300Z,100428.88
2022-08-02T06:04:10.311Z,100434.20
2022-08-02T06:06:39.133Z,100432.05
2022-08-02T06:09:12.482Z,100439.92
2022-08-02T06:11:43.112Z,100433.70
2022-08-02T06:14:13.989Z,100433.95
2022-08-02T06:16:45.425Z,100434.64
2022-08-02T06:19:15.458Z,100431.65
2022-08-02T06:22:40.564Z,100438.88
2022-08-02T06:24:17.437Z,100444.59
2022-08-02T06:26:46.699Z,100441.89
2022-08-02T06:29:16.107Z,100451.09
2022-08-02T06:31:45.647Z,100451.09
2022-08-02T06:34:14.383Z,100455.62
2022-08-02T06:36:46.298Z,100448.78
2022-08-02T06:39:16.586Z,100450.30
2022-08-02T06:41:45.916Z,100452.93
2022-08-02T06:44:46.034Z,100453.39
2022-08-02T06:47:09.460Z,100448.35
2022-08-02T06:49:20.454Z,100452.39
2022-08-02T06:51:49.313Z,100451.04
2022-08-02T06:54:20.741Z,100454.34
2022-08-02T06:56:49.557Z,100460.11
2022-08-02T06:59:18.330Z,100461.14
2022-08-02T07:01:47.166Z,100458.66
2022-08-02T07:04:19.967Z,100465.02
2022-08-02T07:06:46.280Z,100452.72
2022-08-02T07:09:22.407Z,100456.64
2022-08-02T07:11:45.588Z,100447.06
2022-08-02T07:14:14.424Z,100452.66
2022-08-02T07:16:43.167Z,100452.73
2022-08-02T07:19:13.285Z,100449.99
2022-08-02T07:21:56.352Z,100447.66
2022-08-02T07:24:12.502Z,100453.91
2022-08-02T07:27:01.506Z,100446.33
2022-08-02T07:29:11.858Z,100444.03
2022-08-02T07:31:40.642Z,100445.00
2022-08-02T07:34:09.503Z,100444.08
2022-08-02T07:36:38.704Z,100445.77
2022-08-02T07:39:08.580Z,100445.59
2022-08-02T07:41:39.125Z,100443.77
2022-08-02T07:44:08.907Z,100448.52
2022-08-02T07:46:38.169Z,100439.19
2022-08-02T07:49:06.988Z,100442.08
2022-08-02T07:51:36.758Z,100437.90
2022-08-02T07:54:05.736Z,100437.66
2022-08-02T07:56:34.639Z,100442.80
2022-08-02T07:59:03.435Z,100442.80
2022-08-02T08:01:32.505Z,100442.34
2022-08-02T08:04:01.393Z,100442.54
2022-08-02T08:06:31.438Z,100445.23
2022-08-02T08:09:00.672Z,100443.00
2022-08-02T08:11:29.587Z,100441.91
2022-08-02T08:13:58.536Z,100438.92
2022-08-02T08:16:29.073Z,100441.70
2022-08-02T08:18:57.949Z,100443.11
2022-08-02T08:21:27.745Z,100446.72
2022-08-02T08:23:57.894Z,100451.16
2022-08-02T08:26:27.876Z,100447.11
2022-08-02T08:28:56.629Z,100447.73
2022-08-02T08:31:25.412Z,100452.83
2022-08-02T08:33:54.844Z,100459.48
2022-08-02T08:36:23.695Z,100458.94
2022-08-02T08:38:52.428Z,100445.75
2022-08-02T08:41:21.335Z,100447.81
2022-08-02T08:43:53.373Z,100451.95
2022-08-02T08:46:28.617Z,100455.22
2022-08-02T08:49:01.010Z,100458.88
2022-08-02T08:51:31.929Z,100457.00
2022-08-02T08:54:02.937Z,100458.50
2022-08-02T08:56:36.295Z,100453.53
2022-08-02T08:59:05.399Z,100448.86
2022-08-02T09:01:49.610Z,100460.27
2022-08-02T09:04:05.126Z,100461.98
2022-08-02T09:06:34.049Z,100458.81
2022-08-02T09:09:02.953Z,100463.28
2022-08-02T09:11:32.001Z,100462.12
2022-08-02T09:14:01.574Z,100459.93
2022-08-02T09:16:43.765Z,100462.85
2022-08-02T09:19:20.486Z,100458.74
2022-08-02T09:21:53.278Z,100462.33
2022-08-02T09:24:23.236Z,100457.85
2022-08-02T09:26:52.418Z,100459.42
2022-08-02T09:29:22.811Z,100462.61
2022-08-02T09:31:53.276Z,100460.20
2022-08-02T09:34:23.469Z,100468.96
2022-08-02T09:36:54.439Z,100461.41
2022-08-02T09:39:23.988Z,100455.48
2022-08-02T09:41:53.412Z,100452.64
2022-08-02T09:44:22.235Z,100449.33
2022-08-02T09:46:52.077Z,100453.25
2022-08-02T09:49:20.928Z,100453.67
2022-08-02T09:51:51.772Z,100446.79
2022-08-02T09:54:23.460Z,100454.70
2022-08-02T09:56:53.085Z,100447.66
2022-08-02T09:59:24.925Z,100447.86
2022-08-02T10:02:01.915Z,100451.44
2022-08-02T10:04:26.275Z,100443.18
2022-08-02T10:06:55.267Z,100452.88
2022-08-02T10:09:23.983Z,100445.62
2022-08-02T10:11:53.159Z,100449.52
2022-08-02T10:14:23.578Z,100449.25
2022-08-02T10:16:54.881Z,100450.75
2022-08-02T10:19:59.736Z,100449.92
2022-08-02T10:21:55.679Z,100450.02
2022-08-02T10:24:26.032Z,100444.97
2022-08-02T10:26:55.265Z,100441.70
2022-08-02T10:29:52.861Z,100441.66
2022-08-02T10:32:13.672Z,100438.43
2022-08-02T10:34:51.133Z,100441.92
2022-08-02T10:37:18.439Z,100446.98
2022-08-02T10:39:50.786Z,100438.23
2022-08-02T10:42:19.269Z,100435.75
2022-08-02T10:44:48.141Z,100441.02
2022-08-02T10:47:21.372Z,100438.55
2022-08-02T10:49:54.901Z,100439.36
2022-08-02T10:52:25.566Z,100437.23
2022-08-02T10:55:01.766Z,100433.11
2022-08-02T10:57:32.277Z,100433.34
2022-08-02T11:00:17.403Z,100430.48
2022-08-02T11:02:47.184Z,100437.41
2022-08-02T11:05:18.883Z,100424.39
2022-08-02T11:07:51.320Z,100422.63
2022-08-02T11:10:30.586Z,100417.23
2022-08-02T11:13:03.685Z,100412.42
2022-08-02T11:15:34.110Z,100408.94
2022-08-02T11:18:02.934Z,100412.66
2022-08-02T11:20:31.828Z,100407.88
2022-08-02T11:23:02.343Z,100409.30
2022-08-02T11:25:54.430Z,100408.34
2022-08-02T11:28:03.723Z,100411.03
2022-08-02T11:30:32.507Z,100406.27
2022-08-02T11:33:01.795Z,100397.66
2022-08-02T11:35:37.474Z,100404.09
2022-08-02T11:38:16.311Z,100394.56
2022-08-02T11:40:45.357Z,100394.94
2022-08-02T11:43:18.782Z,100397.84
2022-08-02T11:45:48.144Z,100402.03
2022-08-02T11:48:18.613Z,100402.85
2022-08-02T11:50:47.326Z,100405.88
2022-08-02T11:53:16.956Z,100406.16
2022-08-02T11:55:45.799Z,100408.27
2022-08-02T11:58:14.549Z,100402.21
2022-08-02T12:00:44.942Z,100395.84
2022-08-02T12:03:17.908Z,100395.55
2022-08-02T12:06:05.228Z,100404.93
2022-08-02T12:08:22.233Z,100408.58
2022-08-02T12:10:51.810Z,100398.09
2022-08-02T12:13:20.628Z,100398.64
2022-08-02T12:15:49.470Z,100397.34
2022-08-02T12:18:37.641Z,100391.87
2022-08-02T12:21:07.923Z,100388.11
2022-08-02T12:23:38.170Z,100393.59
2022-08-02T12:26:15.926Z,100398.12
2022-08-02T12:28:42.640Z,100402.56
2022-08-02T12:31:14.657Z,100401.45
2022-08-02T12:33:53.795Z,100396.14
2022-08-02T12:36:24.241Z,100396.45
2022-08-02T12:38:58.524Z,100390.56
2022-08-02T12:41:31.915Z,100383.37
2022-08-02T12:43:58.815Z,100394.07
2022-08-02T12:46:27.933Z,100395.52
2022-08-02T12:49:16.832Z,100394.11
2022-08-02T12:51:55.681Z,100391.06
2022-08-02T12:54:17.761Z,100393.59
2022-08-02T12:56:47.424Z,100386.37
2022-08-02T12:59:16.655Z,100382.45
2022-08-02T13:01:45.817Z,100378.14
2022-08-02T13:04:16.516Z,100377.73
2022-08-02T13:06:45.683Z,100371.08
2022-08-02T13:09:16.098Z,100366.62
2022-08-02T13:11:45.381Z,100366.50
2022-08-02T13:14:14.552Z,100368.30
2022-08-02T13:16:44.794Z,100374.87
2022-08-02T13:19:16.869Z,100374.38
2022-08-02T13:22:11.197Z,100368.97
2022-08-02T13:24:27.388Z,100362.55
2022-08-02T13:26:47.616Z,100363.72
2022-08-02T13:29:16.359Z,100364.12
2022-08-02T13:31:45.224Z,100353.29
2022-08-02T13:34:14.315Z,100350.35
2022-08-02T13:36:43.212Z,100342.00
2022-08-02T13:39:12.731Z,100333.52
2022-08-02T13:41:41.649Z,100334.75
2022-08-02T13:44:11.164Z,100328.77
2022-08-02T13:46:45.391Z,100322.05
2022-08-02T13:49:13.943Z,100335.05
2022-08-02T13:51:41.100Z,100326.92
2022-08-02T13:54:10.039Z,100329.25
2022-08-02T13:56:39.769Z,100322.11
2022-08-02T13:59:55.437Z,100324.19
2022-08-02T14:01:39.364Z,100317.11
2022-08-02T14:04:09.382Z,100314.02
2022-08-02T14:06:51.154Z,100318.34
2022-08-02T14:09:20.045Z,100311.53
2022-08-02T14:11:49.416Z,100313.42
2022-08-02T14:14:18.156Z,100314.34
2022-08-02T14:16:47.056Z,100312.78
2022-08-02T14:19:17.325Z,100308.80
2022-08-02T14:21:48.079Z,100304.73
2022-08-02T14:24:16.909Z,100308.00
2022-08-02T14:26:46.048Z,100295.93
2022-08-02T14:29:15.068Z,100298.42
2022-08-02T14:31:45.092Z,100292.45
2022-08-02T14:34:14.618Z,100300.00
2022-08-02T14:36:43.410Z,100301.03
2022-08-02T14:39:12.324Z,100300.05
2022-08-02T14:42:00.144Z,100302.09
2022-08-02T14:44:11.585Z,100311.52
2022-08-02T14:46:43.732Z,100308.12
2022-08-02T14:49:14.642Z,100307.46
2022-08-02T14:51:46.649Z,100304.80
2022-08-02T14:54:15.374Z,100303.62
2022-08-02T14:56:45.827Z,100303.51
2022-08-02T14:59:16.251Z,100295.03
2022-08-02T15:01:46.022Z,100295.69
2022-08-02T15:04:14.879Z,100298.11
2022-08-02T15:06:43.633Z,100302.95
2022-08-02T15:09:15.101Z,100299.25
2022-08-02T15:11:48.019Z,100295.91
2022-08-02T15:14:14.205Z,100289.56
2022-08-02T15:16:56.138Z,100287.53
2022-08-02T15:19:13.522Z,100292.65
2022-08-02T15:21:54.696Z,100285.83
2022-08-02T15:24:12.659Z,100283.12
2022-08-02T15:26:41.437Z,100281.39
2022-08-02T15:29:10.185Z,100288.11
2022-08-02T15:31:41.773Z,100282.23
2022-08-02T15:34:09.350Z,100289.02
2022-08-02T15:36:38.081Z,100280.31
2022-08-02T15:39:06.901Z,100279.08
2022-08-02T15:41:36.598Z,100281.91
2022-08-02T15:44:06.997Z,100283.45
2022-08-02T15:46:38.183Z,100275.76
2022-08-02T15:49:07.058Z,100276.29
2022-08-02T15:51:35.812Z,100275.02
2022-08-02T15:54:04.760Z,100274.05
2022-08-02T15:56:33.496Z,100272.53
2022-08-02T15:59:02.335Z,100276.46
2022-08-02T16:01:36.880Z,100272.39
2022-08-02T16:04:01.727Z,100279.34
2022-08-02T16:06:30.514Z,100277.92
2022-08-02T16:08:59.259Z,100283.27
2022-08-02T16:11:28.007Z,100283.28
2022-08-02T16:13:58.447Z,100281.66
2022-08-02T16:16:29.503Z,100279.34
2022-08-02T16:19:45.976Z,100274.55
2022-08-02T16:24:36.982Z,100269.82
2022-08-02T16:27:05.838Z,100264.27
2022-08-02T16:29:36.156Z,100257.91
2022-08-02T16:32:05.759Z,100262.56
2022-08-02T16:34:56.717Z,100265.06
2022-08-02T16:37:05.828Z,100265.05
2022-08-02T16:39:36.828Z,100264.87
2022-08-02T16:42:05.810Z,100258.46
2022-08-02T16:44:34.847Z,100256.12
2022-08-02T16:47:03.621Z,100257.84
2022-08-02T16:50:07.309Z,100254.91
2022-08-02T16:52:03.754Z,100254.31
2022-08-02T16:54:32.495Z,100257.91
2022-08-02T16:57:02.984Z,100252.72
2022-08-02T16:59:42.591Z,100261.11
2022-08-02T17:02:15.261Z,100263.42
2022-08-02T17:04:36.715Z,100257.21
2022-08-02T17:07:11.064Z,100261.92
2022-08-02T17:10:04.659Z,100261.37
2022-08-02T17:12:10.951Z,100260.78
2022-08-02T17:14:54.563Z,100263.87
2022-08-02T17:17:14.442Z,100261.81
2022-08-02T17:19:40.029Z,100259.27
2022-08-02T17:22:10.228Z,100264.63
2022-08-02T17:24:39.259Z,100263.34
2022-08-02T17:27:07.985Z,100267.87
2022-08-02T17:29:36.760Z,100266.69
2022-08-02T17:32:12.107Z,100268.82
2022-08-02T17:34:37.866Z,100272.91
2022-08-02T17:37:06.849Z,100277.59
2022-08-02T17:39:43.948Z,100280.80
2022-08-02T17:42:07.928Z,100282.56
2022-08-02T17:44:40.748Z,100278.91
2022-08-02T17:47:11.582Z,100282.04
2022-08-02T17:49:44.374Z,100286.66
2022-08-02T17:52:48.636Z,100283.75
2022-08-02T17:54:43.739Z,100280.48
2022-08-02T17:57:12.876Z,100281.84
2022-08-02T17:59:44.829Z,100282.84
2022-08-02T18:02:15.280Z,100284.31
2022-08-02T18:04:44.215Z,100282.30
2022-08-02T18:07:23.458Z,100279.00
2022-08-02T18:09:45.288Z,100281.94
2022-08-02T18:12:15.710Z,100291.83
2022-08-02T18:14:49.069Z,100289.47
2022-08-02T18:17:19.143Z,100288.31
2022-08-02T18:19:55.128Z,100292.86
2022-08-02T18:22:19.080Z,100300.39
2022-08-02T18:24:49.519Z,100301.53
2022-08-02T18:27:18.773Z,100294.98
2022-08-02T18:30:00.206Z,100290.63
2022-08-02T18:33:53.903Z,100296.58
2022-08-02T18:34:50.101Z,100305.23
2022-08-02T18:37:19.859Z,100305.08
2022-08-02T18:39:51.316Z,100307.91
2022-08-02T18:42:20.189Z,100308.92
2022-08-02T18:44:48.903Z,100310.56
2022-08-02T18:47:17.647Z,100311.16
2022-08-02T18:49:50.403Z,100312.19
2022-08-02T18:52:30.795Z,100315.20
2022-08-02T18:54:47.169Z,100314.73
2022-08-02T18:58:17.407Z,100312.91
2022-08-02T18:59:51.331Z,100321.02
2022-08-02T19:02:19.283Z,100327.15
2022-08-02T19:04:48.084Z,100332.33
2022-08-02T19:07:17.916Z,100330.62
2022-08-02T19:09:48.273Z,100325.92
2022-08-02T19:12:17.593Z,100327.45
2022-08-02T19:14:47.544Z,100330.84
2022-08-02T19:17:54.245Z,100343.13
2022-08-02T19:19:48.011Z,100340.30
2022-08-02T19:24:51.138Z,100340.73
2022-08-02T19:27:32.002Z,100334.52
2022-08-02T19:29:53.461Z,100344.29
2022-08-02T19:32:40.267Z,100340.77
2022-08-02T19:34:51.747Z,100340.81
2022-08-02T19:37:20.740Z,100335.81
2022-08-02T19:39:50.027Z,100338.72
2022-08-02T19:42:19.261Z,100341.07
2022-08-02T19:44:48.406Z,100338.70
2022-08-02T19:47:19.177Z,100338.58
2022-08-02T19:52:21.211Z,100344.45
2022-08-02T19:54:56.001Z,100346.30
2022-08-02T19:59:49.638Z,100342.63
2022-08-02T20:02:19.349Z,100345.31
2022-08-02T20:04:50.072Z,100348.50
2022-08-02T20:07:24.517Z,100348.16
2022-08-02T20:09:49.706Z,100357.22
2022-08-02T20:12:20.282Z,100346.00
2022-08-02T20:14:51.193Z,100350.69
2022-08-02T20:17:21.125Z,100351.17
2022-08-02T20:19:50.025Z,100350.69
2022-08-02T20:22:20.504Z,100348.84
2022-08-02T20:24:50.470Z,100352.01
2022-08-02T20:27:24.813Z,100354.13
2022-08-02T20:29:50.018Z,100352.80
2022-08-02T20:32:23.447Z,100357.83
2022-08-02T20:34:53.583Z,100355.30
2022-08-02T20:37:59.454Z,100359.45
2022-08-02T20:39:52.809Z,100356.74
2022-08-02T20:42:24.386Z,100366.28
2022-08-02T20:44:55.913Z,100363.77
2022-08-02T20:47:27.896Z,100358.88
2022-08-02T20:50:12.988Z,100354.70
2022-08-02T20:52:43.444Z,100356.70
2022-08-02T20:55:17.221Z,100351.97
2022-08-02T21:00:14.055Z,100354.20
2022-08-02T21:02:45.916Z,100352.66
2022-08-02T21:05:18.448Z,100354.56
2022-08-02T21:07:53.424Z,100354.75
2022-08-02T21:10:18.424Z,100352.48
2022-08-02T21:12:47.471Z,100352.63
2022-08-02T21:15:17.927Z,100348.65
2022-08-02T21:18:03.391Z,100351.48
2022-08-02T21:20:18.781Z,100360.85
2022-08-02T21:22:49.977Z,100350.95
2022-08-02T21:25:42.749Z,100354.59
2022-08-02T21:27:56.481Z,100350.92
2022-08-02T21:30:25.324Z,100353.25
2022-08-02T21:32:57.825Z,100351.50
2022-08-02T21:35:26.564Z,100355.17
2022-08-02T21:37:58.169Z,100357.34
2022-08-02T21:40:25.844Z,100361.33
2022-08-02T21:42:55.876Z,100364.08
2022-08-02T21:45:24.629Z,100361.83
2022-08-02T21:47:54.964Z,100356.63
2022-08-02T21:50:23.754Z,100358.88
2022-08-02T21:52:54.084Z,100363.39
2022-08-02T21:55:24.414Z,100362.55
2022-08-02T21:57:53.300Z,100359.69
2022-08-02T22:00:28.246Z,100360.13
2022-08-02T22:02:54.136Z,100361.97
2022-08-02T22:05:22.988Z,100358.91
2022-08-02T22:07:52.154Z,100366.20
2022-08-02T22:10:20.985Z,100366.30
2022-08-02T22:12:49.828Z,100366.14
2022-08-02T22:15:25.846Z,100360.95
2022-08-02T22:17:59.820Z,100368.00
2022-08-02T22:20:22.267Z,100367.66
2022-08-02T22:22:52.287Z,100369.44
2022-08-02T22:25:35.957Z,100373.11
2022-08-02T22:28:36.139Z,100369.74
2022-08-02T22:30:22.648Z,100374.08
2022-08-02T22:33:15.025Z,100376.21
2022-08-02T22:35:41.036Z,100375.86
2022-08-02T22:38:14.672Z,100373.64
2022-08-02T22:40:43.439Z,100379.28
2022-08-02T22:43:12.629Z,100381.90
2022-08-02T22:45:46.311Z,100376.70
2022-08-02T22:48:15.253Z,100383.88
2022-08-02T22:50:44.514Z,100380.55
2022-08-02T22:53:13.259Z,100382.17
2022-08-02T22:55:43.628Z,100385.52
2022-08-02T22:58:12.420Z,100385.27
2022-08-02T22:58:58.465Z,100336.79
2022-08-02T22:59:05.810Z,100355.75
2022-08-02T22:59:07.157Z,100341.26
2022-08-02T22:59:07.885Z,100344.95
2022-08-02T23:00:42.128Z,100386.47
2022-08-02T23:03:10.852Z,100385.13
2022-08-02T23:05:39.642Z,100379.79
2022-08-02T23:08:08.457Z,100380.72
2022-08-02T23:10:37.275Z,100380.02
2022-08-02T23:13:06.038Z,100381.62
2022-08-02T23:15:36.404Z,100379.44
2022-08-02T23:18:23.040Z,100384.78
2022-08-02T23:20:51.734Z,100376.22
2022-08-02T23:23:21.870Z,100378.69
2022-08-02T23:25:50.603Z,100378.63
2022-08-02T23:28:19.333Z,100379.41
2022-08-02T23:30:48.135Z,100372.59
2022-08-02T23:33:16.872Z,100375.05
2022-08-02T23:35:45.606Z,100374.70
2022-08-02T23:38:14.408Z,100373.02
2022-08-02T23:40:43.162Z,100366.98
2022-08-02T23:43:14.918Z,100370.98
2022-08-02T23:45:45.675Z,100372.52
2022-08-02T23:48:14.715Z,100363.81
2022-08-02T23:50:43.543Z,100368.84
2022-08-02T23:53:12.369Z,100368.14
2022-08-02T23:55:42.154Z,100360.73
2022-08-02T23:58:10.976Z,100362.22
